Time;durP1;ratioP1;P1;durP2;ratioP2;P2;SDS_P1;SDS_P2;PMS_P1;PMS_P2;Temp;Humidity;BMP_temperature;BMP_pressure;BME280_temperature;BME280_humidity;BME280_pressure;Samples;Min_cycle;Max_cycle;Signal;HPM_P1;HPM_P2
2024/03/26 00:01:56;;;;;;;9.27;3.38;;;;;;;-146.27;59.34;46571.59;5093081;28;20030;-73
2024/03/26 00:04:21;;;;;;;7.50;2.78;;;;;;;-146.27;59.48;46565.63;5090361;28;20059;-73
2024/03/26 00:06:46;;;;;;;11.45;2.92;;;;;;;-146.27;58.95;46577.56;5086926;28;20027;-72
2024/03/26 00:09:12;;;;;;;8.90;3.00;;;;;;;-146.27;59.45;46559.66;5088953;28;20487;-73
2024/03/26 00:11:37;;;;;;;12.77;3.08;;;;;;;-146.27;59.36;46575.56;5088860;28;20059;-73
2024/03/26 00:14:02;;;;;;;9.70;2.90;;;;;;;-146.27;59.01;46561.63;5090284;28;20044;-75
2024/03/26 00:16:28;;;;;;;10.60;3.17;;;;;;;-146.27;59.35;46551.69;5083188;28;20445;-74
2024/03/26 00:18:53;;;;;;;8.32;2.90;;;;;;;-146.27;59.08;46579.56;5088188;28;20644;-74
2024/03/26 00:21:18;;;;;;;8.10;2.38;;;;;;;-146.27;58.86;46567.63;5090690;28;20028;-70
2024/03/26 00:23:44;;;;;;;7.57;3.40;;;;;;;-146.27;58.54;46567.63;5057295;28;20453;-71
2024/03/26 00:26:09;;;;;;;10.38;2.88;;;;;;;-146.27;59.25;46591.50;5071100;28;20116;-71
2024/03/26 00:28:35;;;;;;;8.25;2.97;;;;;;;-146.27;58.70;46593.50;5089162;28;20055;-71
2024/03/26 00:31:00;;;;;;;12.65;2.72;;;;;;;-146.27;58.27;46589.50;5064885;28;20051;-71
2024/03/26 00:33:28;;;;;;;11.30;3.20;;;;;;;-146.27;58.43;46599.47;5064966;28;20051;-71
2024/03/26 00:35:53;;;;;;;11.23;2.72;;;;;;;-146.27;58.70;46571.59;5067829;28;20495;-71
2024/03/26 00:38:19;;;;;;;7.97;2.72;;;;;;;-146.27;58.65;46567.63;5092747;28;20077;-71
2024/03/26 00:40:44;;;;;;;10.32;2.63;;;;;;;-146.27;58.89;46579.56;5093038;28;20082;-71
2024/03/26 00:43:09;;;;;;;7.45;3.10;;;;;;;-146.27;59.14;46623.34;5073614;28;20038;-71
2024/03/26 00:45:35;;;;;;;5.85;2.83;;;;;;;-146.27;58.83;46575.56;5067324;28;20395;-71
2024/03/26 00:48:01;;;;;;;9.60;3.03;;;;;;;-146.27;58.79;46567.63;5061705;28;20535;-72
2024/03/26 00:50:26;;;;;;;11.70;2.40;;;;;;;-146.27;58.71;46575.56;5094601;28;20047;-71
2024/03/26 00:52:51;;;;;;;8.95;2.90;;;;;;;-146.27;59.14;46561.63;5070921;28;20119;-71
2024/03/26 00:55:17;;;;;;;5.95;2.85;;;;;;;-146.27;59.42;46559.66;5069008;28;20032;-73
2024/03/26 00:57:43;;;;;;;11.40;2.90;;;;;;;-146.27;59.29;46619.38;5088713;28;20138;-71
2024/03/26 01:00:10;;;;;;;9.68;2.92;;;;;;;-146.27;59.44;46577.56;5089610;28;20404;-71
2024/03/26 01:02:36;;;;;;;7.25;2.47;;;;;;;-146.27;59.70;46543.72;5089542;28;20411;-71
2024/03/26 01:05:03;;;;;;;8.80;3.00;;;;;;;-146.27;59.31;46567.63;5087569;28;20028;-72
2024/03/26 01:07:28;;;;;;;9.43;2.58;;;;;;;-146.27;59.39;46583.53;5091107;28;20695;-71
2024/03/26 01:09:53;;;;;;;9.05;2.90;;;;;;;-146.27;59.04;46579.56;5097425;28;20035;-71
2024/03/26 01:12:19;;;;;;;6.75;2.90;;;;;;;-146.27;59.11;46567.63;5073339;28;20032;-71
2024/03/26 01:14:44;;;;;;;10.02;3.63;;;;;;;-146.27;59.37;46579.56;5078709;28;20107;-72
2024/03/26 01:17:10;;;;;;;9.10;3.08;;;;;;;-146.27;59.67;46575.56;5080045;28;20036;-71
2024/03/26 01:19:36;;;;;;;14.95;3.80;;;;;;;-146.27;59.37;46595.47;5075488;28;20138;-71
2024/03/26 01:22:02;;;;;;;8.70;2.67;;;;;;;-146.27;59.29;46563.63;5070614;28;20047;-71
2024/03/26 01:24:27;;;;;;;13.65;3.08;;;;;;;-146.27;59.04;46581.56;5094036;28;20048;-72
2024/03/26 01:26:54;;;;;;;8.43;2.83;;;;;;;-146.27;58.82;46567.63;5074056;28;20048;-71
2024/03/26 01:29:19;;;;;;;11.18;3.08;;;;;;;-146.27;59.09;46575.56;5066327;28;20032;-71
2024/03/26 01:31:44;;;;;;;9.95;2.67;;;;;;;-146.27;59.29;46593.50;5088408;28;20028;-72
2024/03/26 01:34:11;;;;;;;7.28;2.50;;;;;;;-146.27;59.17;46595.47;5053864;28;20416;-71
2024/03/26 01:36:36;;;;;;;9.38;3.20;;;;;;;-146.27;59.48;46573.59;5072280;28;20023;-72
2024/03/26 01:39:02;;;;;;;14.15;3.33;;;;;;;-146.27;59.55;46597.47;5091269;28;20013;-71
2024/03/26 01:41:27;;;;;;;7.45;2.60;;;;;;;-146.27;59.50;46575.56;5074079;28;20026;-71
2024/03/26 01:43:52;;;;;;;8.68;2.80;;;;;;;-146.27;59.45;46589.50;5087064;28;20107;-72
2024/03/26 01:46:18;;;;;;;12.27;2.75;;;;;;;-146.27;59.36;46583.53;5090615;28;20032;-72
2024/03/26 01:48:44;;;;;;;6.20;2.67;;;;;;;-146.27;59.62;46579.56;5097914;28;20664;-72
2024/03/26 01:51:11;;;;;;;7.93;3.03;;;;;;;-146.27;60.15;46571.59;5073246;28;20035;-72
2024/03/26 01:53:37;;;;;;;12.10;3.17;;;;;;;-146.27;59.86;46591.50;5090325;28;20646;-72
2024/03/26 01:56:02;;;;;;;6.25;2.70;;;;;;;-146.27;60.24;46599.47;5087994;28;20028;-72
2024/03/26 01:58:28;;;;;;;10.10;3.08;;;;;;;-146.27;60.61;46589.50;5087591;28;20349;-71
2024/03/26 02:00:54;;;;;;;9.98;2.95;;;;;;;-146.27;60.28;46581.56;5070355;28;20404;-72
2024/03/26 02:03:20;;;;;;;9.30;3.05;;;;;;;-146.27;60.45;46559.66;5086099;28;20032;-71
2024/03/26 02:05:45;;;;;;;7.93;2.90;;;;;;;-146.27;59.94;46575.56;5093124;28;20077;-72
2024/03/26 02:08:13;;;;;;;9.00;3.13;;;;;;;-146.27;60.46;46565.63;5075426;28;20078;-71
2024/03/26 02:10:38;;;;;;;5.13;2.60;;;;;;;-146.27;59.88;46563.63;5075678;28;20059;-72
2024/03/26 02:13:04;;;;;;;10.07;2.70;;;;;;;-146.27;60.48;46629.31;5083353;28;20075;-71
2024/03/26 02:15:30;;;;;;;5.68;2.72;;;;;;;-146.27;60.51;46575.56;5074994;28;20531;-72
2024/03/26 02:17:56;;;;;;;5.47;2.55;;;;;;;-146.27;60.75;46583.53;5083146;28;20047;-72
2024/03/26 02:20:23;;;;;;;13.55;3.33;;;;;;;-146.27;60.27;46605.44;5083651;28;20020;-71
2024/03/26 02:22:55;;;;;;;9.73;3.03;;;;;;;-146.27;60.38;46571.59;5092489;28;20499;-71
2024/03/26 02:25:20;;;;;;;9.43;2.85;;;;;;;-146.27;60.48;46595.47;5063891;28;20045;-72
2024/03/26 02:27:46;;;;;;;12.02;3.05;;;;;;;-146.27;60.73;46591.50;5054110;28;20050;-72
2024/03/26 02:30:11;;;;;;;9.70;2.97;;;;;;;-146.27;61.10;46579.56;5068648;28;20036;-72
2024/03/26 02:32:37;;;;;;;4.95;2.53;;;;;;;-146.27;61.18;46551.69;5045421;28;20473;-71
2024/03/26 02:35:02;;;;;;;8.80;4.00;;;;;;;-146.27;61.66;46563.63;5052104;28;20021;-71
2024/03/26 02:37:28;;;;;;;10.68;2.75;;;;;;;-146.27;61.79;46551.69;5043380;28;20021;-71
2024/03/26 02:39:53;;;;;;;4.93;2.75;;;;;;;-146.27;61.46;46587.53;5053162;28;20544;-72
2024/03/26 02:42:18;;;;;;;7.97;3.22;;;;;;;-146.27;61.90;46539.75;5067181;28;20020;-71
2024/03/26 02:44:44;;;;;;;7.47;2.95;;;;;;;-146.27;61.62;46561.63;5051490;28;20162;-71
2024/03/26 02:47:09;;;;;;;7.15;2.95;;;;;;;-146.27;61.62;46529.78;5043780;28;20082;-71
2024/03/26 02:49:34;;;;;;;14.27;3.50;;;;;;;-146.27;62.10;46557.66;5060536;28;20521;-71
2024/03/26 02:52:00;;;;;;;5.90;2.85;;;;;;;-146.27;62.09;46549.69;5049664;28;20044;-71
2024/03/26 02:54:25;;;;;;;14.68;3.25;;;;;;;-146.27;62.29;46525.81;5052844;28;20021;-71
2024/03/26 02:56:51;;;;;;;10.63;2.78;;;;;;;-146.27;62.53;46559.66;5051687;28;20033;-71
2024/03/26 02:59:16;;;;;;;12.63;3.17;;;;;;;-146.27;62.80;46545.72;5053578;28;20024;-73
2024/03/26 03:01:42;;;;;;;11.80;3.60;;;;;;;-146.27;62.65;46521.81;5064979;28;20124;-72
2024/03/26 03:04:07;;;;;;;8.95;3.03;;;;;;;-146.27;62.86;46503.91;5043180;28;20029;-71
2024/03/26 03:06:32;;;;;;;6.28;2.92;;;;;;;-146.27;63.37;46507.88;5037289;28;20036;-71
2024/03/26 03:08:58;;;;;;;9.75;3.13;;;;;;;-146.27;63.23;46472.06;5061164;28;20060;-72
2024/03/26 03:11:23;;;;;;;8.80;3.70;;;;;;;-146.27;63.61;46519.84;5045410;28;20025;-71
2024/03/26 03:13:48;;;;;;;9.32;3.03;;;;;;;-146.27;63.69;46472.06;5050074;28;20029;-71
2024/03/26 03:16:14;;;;;;;17.10;3.25;;;;;;;-146.27;63.84;46464.09;5035617;28;20457;-71
2024/03/26 03:18:39;;;;;;;8.20;3.40;;;;;;;-146.27;63.29;46476.03;5047345;28;20032;-73
2024/03/26 03:21:04;;;;;;;6.50;3.08;;;;;;;-146.27;63.59;46497.94;5037581;28;20033;-72
2024/03/26 03:23:30;;;;;;;10.73;3.15;;;;;;;-146.27;63.79;46474.03;5049258;28;20017;-71
2024/03/26 03:25:56;;;;;;;11.57;3.67;;;;;;;-146.27;63.62;46466.09;5083485;28;20048;-71
2024/03/26 03:28:22;;;;;;;11.35;3.25;;;;;;;-146.27;63.95;46472.06;5054809;28;20033;-70
2024/03/26 03:30:47;;;;;;;8.65;3.47;;;;;;;-146.27;63.82;46444.19;5063288;28;20031;-71
2024/03/26 03:33:13;;;;;;;13.20;3.63;;;;;;;-146.27;63.76;46448.16;5065850;28;20154;-71
2024/03/26 03:35:40;;;;;;;9.02;2.75;;;;;;;-146.27;63.60;46458.13;5087800;28;20020;-70
2024/03/26 03:38:05;;;;;;;10.82;3.30;;;;;;;-146.27;63.57;46444.19;5092108;28;20028;-70
2024/03/26 03:40:35;;;;;;;6.93;2.90;;;;;;;-146.27;63.73;46444.19;5073950;28;20030;-72
2024/03/26 03:43:00;;;;;;;13.77;3.63;;;;;;;-146.27;64.09;46464.09;5070251;28;20026;-71
2024/03/26 03:45:28;;;;;;;12.43;3.10;;;;;;;-146.27;63.93;46422.28;5080029;28;20395;-71
2024/03/26 03:47:54;;;;;;;8.13;3.10;;;;;;;-146.27;63.63;46456.13;5069433;28;20480;-71
2024/03/26 03:50:20;;;;;;;5.55;2.67;;;;;;;-146.27;63.43;46448.16;5063784;28;20030;-70
2024/03/26 03:52:46;;;;;;;7.18;3.50;;;;;;;-146.27;63.76;46440.19;5069180;28;20536;-71
2024/03/26 03:55:11;;;;;;;7.95;3.45;;;;;;;-146.27;63.14;46452.16;5073349;28;20028;-71
2024/03/26 03:57:41;;;;;;;12.05;3.22;;;;;;;-146.27;63.23;46472.06;5082812;28;20071;-71
2024/03/26 04:00:07;;;;;;;9.07;3.05;;;;;;;-146.27;63.03;46464.09;5099351;28;20395;-71
2024/03/26 04:02:33;;;;;;;9.25;2.92;;;;;;;-146.27;62.96;46466.09;5083678;28;20030;-71
2024/03/26 04:04:58;;;;;;;9.73;3.20;;;;;;;-146.27;63.26;46434.22;5091187;28;20103;-71
2024/03/26 04:07:25;;;;;;;9.23;3.17;;;;;;;-146.27;63.04;46418.31;5097001;28;20031;-71
2024/03/26 04:09:54;;;;;;;9.90;2.75;;;;;;;-146.27;63.26;46468.06;5076419;28;20059;-71
2024/03/26 04:12:19;;;;;;;12.05;4.13;;;;;;;-146.27;63.23;46452.16;5087038;28;20104;-71
2024/03/26 04:14:45;;;;;;;8.63;3.08;;;;;;;-146.27;63.46;46452.16;5070417;28;20111;-71
2024/03/26 04:17:10;;;;;;;8.55;2.97;;;;;;;-146.27;63.46;46444.19;5072025;28;20036;-71
2024/03/26 04:19:36;;;;;;;6.80;4.00;;;;;;;-146.27;63.32;46436.22;5081071;28;20059;-71
2024/03/26 04:22:03;;;;;;;13.07;5.03;;;;;;;-146.27;62.71;46430.25;5076453;28;20032;-71
2024/03/26 04:24:28;;;;;;;9.52;3.50;;;;;;;-146.27;63.25;46460.09;5073185;28;20603;-72
2024/03/26 04:26:53;;;;;;;6.00;3.17;;;;;;;-146.27;62.80;46466.09;5075678;28;20024;-71
2024/03/26 04:29:19;;;;;;;5.53;3.25;;;;;;;-146.27;63.31;46452.16;5073347;28;20056;-70
2024/03/26 04:31:44;;;;;;;11.75;3.53;;;;;;;-146.27;63.48;46480.03;5089732;28;20236;-72
2024/03/26 04:34:09;;;;;;;10.77;3.35;;;;;;;-146.27;64.03;46448.16;5079431;28;20027;-72
2024/03/26 04:36:35;;;;;;;5.90;3.00;;;;;;;-146.27;63.31;46476.03;5069231;28;20024;-71
2024/03/26 04:39:00;;;;;;;7.72;3.55;;;;;;;-146.27;63.98;46484.00;5080434;28;20024;-71
2024/03/26 04:41:27;;;;;;;4.25;2.78;;;;;;;-146.27;63.65;46476.03;5080181;28;20069;-71
2024/03/26 04:43:52;;;;;;;11.90;3.35;;;;;;;-146.27;63.73;46462.09;5105793;28;20024;-71
2024/03/26 04:46:18;;;;;;;13.35;4.22;;;;;;;-146.27;63.71;46450.16;5080899;28;20111;-71
2024/03/26 04:48:43;;;;;;;8.25;2.88;;;;;;;-146.27;63.90;46470.06;5066384;28;20664;-71
2024/03/26 04:51:09;;;;;;;7.90;2.95;;;;;;;-146.27;64.01;46460.09;5081339;28;20396;-71
2024/03/26 04:53:34;;;;;;;7.97;3.47;;;;;;;-146.27;64.39;46464.09;5074818;28;20025;-71
2024/03/26 04:56:01;;;;;;;11.63;3.60;;;;;;;-146.27;64.23;46468.06;5081354;28;20028;-71
2024/03/26 04:58:32;;;;;;;14.52;3.60;;;;;;;-146.27;65.15;46452.16;5090388;28;20024;-71
2024/03/26 05:00:58;;;;;;;8.75;2.97;;;;;;;-146.27;64.54;46432.25;5087147;28;20038;-73
2024/03/26 05:03:23;;;;;;;6.55;2.97;;;;;;;-146.27;64.47;46440.19;5097842;28;20032;-73
2024/03/26 05:05:48;;;;;;;12.13;3.30;;;;;;;-146.27;65.14;46458.13;5063966;28;20173;-74
2024/03/26 05:08:14;;;;;;;8.02;3.05;;;;;;;-146.27;64.80;46460.09;5079711;28;20028;-75
2024/03/26 05:10:39;;;;;;;5.82;3.03;;;;;;;-146.27;64.77;46436.22;5084142;28;20077;-75
2024/03/26 05:13:05;;;;;;;8.77;3.35;;;;;;;-146.27;64.75;46434.22;5090026;28;20024;-74
2024/03/26 05:15:33;;;;;;;10.98;3.05;;;;;;;-146.27;64.93;46446.19;5098699;28;20035;-75
2024/03/26 05:17:58;;;;;;;9.02;3.60;;;;;;;-146.27;64.53;46448.16;5094604;28;20476;-75
2024/03/26 05:20:23;;;;;;;6.78;3.83;;;;;;;-146.27;64.77;46456.13;5093093;28;20107;-74
2024/03/26 05:22:49;;;;;;;10.27;3.78;;;;;;;-146.27;65.29;46420.28;5089894;28;20024;-74
2024/03/26 05:25:14;;;;;;;5.45;3.00;;;;;;;-146.27;64.76;46440.19;5092951;28;20115;-74
2024/03/26 05:27:40;;;;;;;5.57;3.05;;;;;;;-146.27;64.92;46440.19;5096244;28;20023;-74
2024/03/26 05:30:06;;;;;;;8.85;3.67;;;;;;;-146.27;65.01;46438.22;5105353;28;20046;-74
2024/03/26 05:32:31;;;;;;;7.85;3.10;;;;;;;-146.27;65.20;46436.22;5097989;28;20435;-74
2024/03/26 05:34:57;;;;;;;11.65;3.35;;;;;;;-146.27;64.83;46420.28;5094775;28;20043;-75
2024/03/26 05:37:22;;;;;;;7.35;3.38;;;;;;;-146.27;64.84;46446.19;5083309;28;20039;-74
2024/03/26 05:39:48;;;;;;;5.30;3.13;;;;;;;-146.27;64.88;46424.28;5091867;28;20024;-74
2024/03/26 05:42:13;;;;;;;8.52;3.60;;;;;;;-146.27;65.43;46466.09;5089182;28;20031;-74
2024/03/26 05:44:39;;;;;;;6.78;3.15;;;;;;;-146.27;65.31;46464.09;5094357;28;20484;-74
2024/03/26 05:47:04;;;;;;;11.32;3.55;;;;;;;-146.27;65.05;46436.22;5088120;28;20077;-74
2024/03/26 05:49:29;;;;;;;8.35;3.40;;;;;;;-146.27;64.74;46458.13;5089211;28;20036;-74
2024/03/26 05:51:55;;;;;;;8.70;3.40;;;;;;;-146.27;65.09;46476.03;5097719;28;20086;-73
2024/03/26 05:54:20;;;;;;;9.63;3.55;;;;;;;-146.27;64.76;46480.03;5090657;28;20543;-74
2024/03/26 05:56:45;;;;;;;7.22;2.95;;;;;;;-146.27;64.84;46487.97;5091643;28;20384;-75
2024/03/26 05:59:11;;;;;;;4.70;2.53;;;;;;;-146.27;64.87;46533.78;5091070;28;20157;-74
2024/03/26 06:01:36;;;;;;;6.70;3.33;;;;;;;-146.27;64.69;46491.97;5095283;28;20024;-73
2024/03/26 06:04:01;;;;;;;6.65;3.08;;;;;;;-146.27;64.81;46547.72;5093932;28;20027;-75
2024/03/26 06:06:27;;;;;;;13.63;2.97;;;;;;;-146.27;64.45;46567.63;5089358;28;20062;-74
2024/03/26 06:08:52;;;;;;;11.68;3.38;;;;;;;-146.27;64.65;46593.50;5094149;28;20056;-73
2024/03/26 06:11:18;;;;;;;8.30;3.28;;;;;;;-146.27;64.73;46583.53;5091333;28;20532;-74
2024/03/26 06:13:43;;;;;;;5.63;2.70;;;;;;;-146.27;64.48;46623.34;5092400;28;20436;-75
2024/03/26 06:16:12;;;;;;;10.45;3.63;;;;;;;-146.27;64.39;46651.22;5093489;28;20549;-74
2024/03/26 06:18:38;;;;;;;4.82;2.88;;;;;;;-146.27;64.18;46661.19;5105058;28;20035;-74
2024/03/26 06:21:04;;;;;;;15.30;3.75;;;;;;;-146.27;64.26;46663.16;5091004;28;20384;-75
2024/03/26 06:23:30;;;;;;;11.95;3.30;;;;;;;-146.27;64.32;46655.22;5092164;28;20043;-74
2024/03/26 06:25:55;;;;;;;8.90;3.13;;;;;;;-146.27;63.96;46695.03;5090714;28;20044;-73
2024/03/26 06:28:21;;;;;;;5.18;3.20;;;;;;;-146.27;64.34;46685.06;5096068;28;20119;-74
2024/03/26 06:30:47;;;;;;;7.55;3.65;;;;;;;-146.27;64.06;46699.00;5088438;28;20020;-74
2024/03/26 06:33:14;;;;;;;6.85;3.22;;;;;;;-146.27;64.82;46683.09;5077649;28;20035;-74
2024/03/26 06:35:39;;;;;;;7.90;3.30;;;;;;;-146.27;64.43;46730.88;5081338;28;20095;-75
2024/03/26 06:38:05;;;;;;;9.95;2.83;;;;;;;-146.27;64.42;46699.00;5095970;28;20051;-74
2024/03/26 06:40:35;;;;;;;6.68;3.25;;;;;;;-146.27;63.82;46730.88;5090412;28;20099;-74
2024/03/26 06:43:01;;;;;;;9.13;3.53;;;;;;;-146.27;63.85;46728.88;5091759;28;20039;-73
2024/03/26 06:45:26;;;;;;;11.13;3.55;;;;;;;-146.27;63.43;46724.88;5091983;28;20032;-74
2024/03/26 06:47:52;;;;;;;5.50;2.80;;;;;;;-146.27;63.54;46746.78;5090196;28;20019;-74
2024/03/26 06:50:18;;;;;;;10.02;3.22;;;;;;;-146.27;63.41;46706.97;5092153;28;20396;-73
2024/03/26 06:52:47;;;;;;;10.25;3.13;;;;;;;-146.27;63.29;46730.88;5098236;28;20024;-72
2024/03/26 06:55:22;;;;;;;7.38;3.15;;;;;;;-146.27;63.57;46718.91;5090222;28;20531;-73
2024/03/26 06:57:48;;;;;;;6.28;3.10;;;;;;;-146.27;63.26;46742.81;5089669;28;20732;-76
2024/03/26 07:00:14;;;;;;;6.93;3.70;;;;;;;-146.27;62.80;46726.88;5090141;28;20111;-75
2024/03/26 07:02:43;;;;;;;7.15;3.33;;;;;;;-146.27;62.97;46738.81;5091365;28;20396;-74
2024/03/26 07:05:12;;;;;;;7.60;3.25;;;;;;;-146.27;62.99;46701.00;5099051;28;20099;-74
2024/03/26 07:07:38;;;;;;;8.38;3.25;;;;;;;-146.27;62.12;46726.88;5104210;28;20028;-74
2024/03/26 07:10:04;;;;;;;10.95;3.20;;;;;;;-146.27;62.34;46724.88;5102435;28;20413;-72
2024/03/26 07:12:31;;;;;;;5.65;3.28;;;;;;;-146.27;62.26;46738.81;5092459;28;20023;-74
2024/03/26 07:14:56;;;;;;;5.70;3.05;;;;;;;-146.27;61.17;46720.91;5091914;28;20015;-74
2024/03/26 07:17:22;;;;;;;7.78;3.20;;;;;;;-146.27;61.59;46703.00;5093258;28;20031;-73
2024/03/26 07:19:48;;;;;;;6.18;3.25;;;;;;;-146.27;61.27;46752.75;5087325;28;20081;-73
2024/03/26 07:22:14;;;;;;;6.47;3.25;;;;;;;-146.27;62.50;46718.91;5088131;28;20023;-72
2024/03/26 07:24:39;;;;;;;11.35;3.70;;;;;;;-146.27;61.76;46736.84;5089462;28;20075;-72
2024/03/26 07:27:04;;;;;;;10.32;3.25;;;;;;;-146.27;61.52;46695.03;5089867;28;20080;-73
2024/03/26 07:29:30;;;;;;;6.43;3.08;;;;;;;-146.27;61.51;46726.88;5090437;28;20122;-73
2024/03/26 07:31:55;;;;;;;6.88;3.10;;;;;;;-146.27;61.23;46691.03;5093583;28;20024;-73
2024/03/26 07:34:21;;;;;;;8.32;3.25;;;;;;;-146.27;60.77;46706.97;5090871;28;20073;-73
2024/03/26 07:36:47;;;;;;;9.00;2.90;;;;;;;-146.27;60.57;46714.94;5084577;28;20052;-73
2024/03/26 07:39:19;;;;;;;7.35;3.33;;;;;;;-146.27;61.04;46699.00;5070741;28;20065;-72
2024/03/26 07:41:48;;;;;;;7.38;2.85;;;;;;;-146.27;61.37;46703.00;5101025;28;20697;-73
2024/03/26 07:44:13;;;;;;;5.20;3.20;;;;;;;-146.27;60.89;46699.00;5111203;28;20019;-73
2024/03/26 07:46:41;;;;;;;6.55;3.55;;;;;;;-146.27;60.27;46689.06;5111295;28;20087;-72
2024/03/26 07:49:06;;;;;;;7.85;2.90;;;;;;;-146.27;59.62;46699.00;5100704;28;20023;-73
2024/03/26 07:51:32;;;;;;;5.68;3.50;;;;;;;-146.27;59.88;46701.00;5089335;28;20466;-73
2024/03/26 07:53:57;;;;;;;8.95;3.78;;;;;;;-146.27;59.42;46742.81;5084773;28;20023;-73
2024/03/26 07:56:23;;;;;;;9.52;3.35;;;;;;;-146.27;58.87;46706.97;5090669;28;20088;-72
2024/03/26 07:58:48;;;;;;;5.97;3.00;;;;;;;-146.27;58.44;46732.84;5074733;28;20125;-72
2024/03/26 08:01:13;;;;;;;7.03;3.28;;;;;;;-146.27;59.34;46722.91;5080788;28;20028;-72
2024/03/26 08:03:39;;;;;;;7.53;3.70;;;;;;;-146.27;59.12;46691.03;5093614;28;20019;-73
2024/03/26 08:06:05;;;;;;;7.95;3.13;;;;;;;-146.27;58.90;46706.97;5103247;28;20488;-74
2024/03/26 08:08:30;;;;;;;7.70;3.08;;;;;;;-146.27;58.57;46710.94;5095059;28;20033;-72
2024/03/26 08:10:56;;;;;;;8.55;3.20;;;;;;;-146.27;58.51;46699.00;5110584;28;20032;-73
2024/03/26 08:13:21;;;;;;;8.80;3.33;;;;;;;-146.27;59.31;46683.09;5110700;28;20027;-73
2024/03/26 08:15:47;;;;;;;6.60;2.92;;;;;;;-146.27;58.27;46687.06;5093221;28;20056;-72
2024/03/26 08:18:12;;;;;;;5.43;3.28;;;;;;;-146.27;57.28;46718.91;5069874;28;20392;-73
2024/03/26 08:20:40;;;;;;;9.95;3.35;;;;;;;-146.27;56.79;46695.03;5070216;28;20043;-72
2024/03/26 08:23:06;;;;;;;10.32;3.15;;;;;;;-146.27;57.09;46703.00;5080301;28;20028;-72
2024/03/26 08:25:32;;;;;;;12.43;3.47;;;;;;;-146.27;56.98;46712.94;5101137;28;20074;-74
2024/03/26 08:27:57;;;;;;;4.53;2.80;;;;;;;-146.27;56.76;46675.13;5077469;28;20032;-74
2024/03/26 08:30:23;;;;;;;11.02;4.03;;;;;;;-146.27;56.74;46714.94;5088114;28;20101;-74
2024/03/26 08:32:48;;;;;;;10.25;3.63;;;;;;;-146.27;56.53;46718.91;5069761;28;20027;-72
2024/03/26 08:35:13;;;;;;;6.40;3.10;;;;;;;-146.27;56.32;46720.91;5070122;28;20032;-71
2024/03/26 08:37:39;;;;;;;9.43;3.55;;;;;;;-146.27;56.71;46677.09;5071412;28;20603;-69
2024/03/26 08:40:05;;;;;;;10.00;4.00;;;;;;;-146.27;56.12;46701.00;5053616;28;20444;-70
2024/03/26 08:42:30;;;;;;;6.40;3.75;;;;;;;-146.27;55.67;46720.91;5053031;28;20047;-71
2024/03/26 08:45:08;;;;;;;5.13;3.22;;;;;;;-146.27;56.00;46699.00;5089654;28;20099;-70
2024/03/26 08:47:34;;;;;;;8.18;3.63;;;;;;;-146.27;56.04;46703.00;5081930;28;20119;-71
2024/03/26 08:50:00;;;;;;;8.05;4.15;;;;;;;-146.27;56.26;46659.19;5091624;28;20055;-71
2024/03/26 08:52:25;;;;;;;7.68;3.22;;;;;;;-146.27;54.98;46671.13;5079431;28;20040;-71
2024/03/26 08:54:51;;;;;;;11.35;3.75;;;;;;;-146.27;55.54;46681.09;5073150;28;20451;-71
2024/03/26 08:57:17;;;;;;;7.60;3.70;;;;;;;-146.27;55.31;46671.13;5073300;28;20046;-70
2024/03/26 08:59:44;;;;;;;8.68;2.88;;;;;;;-146.27;55.13;46659.19;5074203;28;20028;-71
2024/03/26 09:02:09;;;;;;;8.57;3.35;;;;;;;-146.27;56.01;46655.22;5078443;28;20510;-71
2024/03/26 09:04:37;;;;;;;8.85;3.22;;;;;;;-146.27;55.48;46730.88;5085776;28;20035;-71
2024/03/26 09:07:03;;;;;;;5.88;3.22;;;;;;;-146.27;55.37;46687.06;5090313;28;20024;-71
2024/03/26 09:09:28;;;;;;;7.13;3.65;;;;;;;-146.27;54.39;46679.09;5074840;28;20148;-71
2024/03/26 09:11:54;;;;;;;7.30;3.17;;;;;;;-146.27;55.03;46726.88;5074387;28;20031;-70
2024/03/26 09:14:19;;;;;;;6.72;3.08;;;;;;;-146.27;54.89;46704.97;5089676;28;20049;-70
2024/03/26 09:16:45;;;;;;;11.70;3.63;;;;;;;-146.27;55.00;46693.03;5091384;28;20083;-70
2024/03/26 09:19:10;;;;;;;6.38;3.30;;;;;;;-146.27;54.41;46637.28;5090381;28;20495;-71
2024/03/26 09:21:36;;;;;;;7.57;3.70;;;;;;;-146.27;54.52;46673.13;5090459;28;20020;-70
2024/03/26 09:24:01;;;;;;;7.82;3.67;;;;;;;-146.27;53.74;46671.13;5082994;28;20070;-71
2024/03/26 09:26:27;;;;;;;3.90;3.08;;;;;;;-146.27;53.91;46671.13;5091960;28;20036;-72
2024/03/26 09:28:52;;;;;;;17.08;3.90;;;;;;;-146.27;54.44;46687.06;5060952;28;20029;-71
2024/03/26 09:31:17;;;;;;;4.95;3.00;;;;;;;-146.27;54.05;46651.22;5056677;28;20029;-71
2024/03/26 09:33:44;;;;;;;7.57;3.40;;;;;;;-146.27;53.82;46663.16;5085885;28;20129;-70
2024/03/26 09:36:09;;;;;;;4.43;2.95;;;;;;;-146.27;54.04;46615.41;5094317;28;20020;-71
2024/03/26 09:38:35;;;;;;;7.72;3.30;;;;;;;-146.27;53.28;46663.16;5094325;28;20034;-71
2024/03/26 09:41:02;;;;;;;9.80;3.65;;;;;;;-146.27;53.91;46667.16;5087292;28;20031;-74
2024/03/26 09:43:30;;;;;;;5.95;3.25;;;;;;;;;;5073780;28;20043;-73
2024/03/26 09:45:57;;;;;;;7.30;2.90;;;;;;;-146.27;53.46;46627.34;5083376;28;20052;-74
2024/03/26 09:48:23;;;;;;;8.55;3.80;;;;;;;-146.27;53.19;46607.44;5096074;28;20016;-73
2024/03/26 09:50:50;;;;;;;5.45;3.30;;;;;;;-146.27;52.70;46659.19;5095939;28;20042;-72
2024/03/26 09:53:19;;;;;;;6.18;3.65;;;;;;;-146.27;53.18;46635.31;5092104;28;20024;-73
2024/03/26 09:55:46;;;;;;;8.73;4.18;;;;;;;-146.27;53.85;46641.28;5092670;28;20038;-73
2024/03/26 09:58:11;;;;;;;8.55;3.80;;;;;;;-146.27;53.54;46629.31;5091827;28;20472;-71
2024/03/26 10:00:40;;;;;;;4.38;2.97;;;;;;;-146.27;53.71;46595.47;5077124;28;20055;-72
2024/03/26 10:03:08;;;;;;;6.18;3.58;;;;;;;-146.27;52.38;46603.44;5073935;28;20028;-71
2024/03/26 10:05:34;;;;;;;5.25;3.55;;;;;;;-146.27;51.90;46621.38;5086448;28;20039;-71
2024/03/26 10:08:00;;;;;;;6.30;3.13;;;;;;;-146.27;51.90;46615.41;5072604;28;20099;-71
2024/03/26 10:10:25;;;;;;;5.30;3.38;;;;;;;-146.27;51.36;46601.47;5072408;28;20020;-71
2024/03/26 10:12:51;;;;;;;10.45;3.88;;;;;;;-146.27;51.67;46595.47;5072561;28;20032;-71
2024/03/26 10:15:18;;;;;;;7.53;3.20;;;;;;;-146.27;51.67;46575.56;5072554;28;20074;-72
2024/03/26 10:17:43;;;;;;;5.15;3.40;;;;;;;-146.27;51.05;46621.38;5071733;28;20047;-72
2024/03/26 10:20:09;;;;;;;9.25;3.30;;;;;;;-146.27;51.21;46651.22;5072464;28;20472;-72
2024/03/26 10:22:34;;;;;;;4.88;2.97;;;;;;;-146.27;51.35;46631.31;5072029;28;20043;-71
2024/03/26 10:25:00;;;;;;;8.65;3.30;;;;;;;-146.27;51.01;46635.31;5072134;28;20109;-71
2024/03/26 10:27:26;;;;;;;6.40;3.10;;;;;;;;;;5070837;28;20101;-71
2024/03/26 10:29:52;;;;;;;5.28;3.72;;;;;;;-146.27;51.37;46635.31;5078565;28;20035;-71
2024/03/26 10:32:22;;;;;;;7.72;3.00;;;;;;;-146.27;51.60;46639.28;5088941;28;20100;-71
2024/03/26 10:34:56;;;;;;;6.80;3.40;;;;;;;-146.27;51.27;46593.50;5080321;28;20617;-71
2024/03/26 10:37:22;;;;;;;;;;;;;;;-146.27;50.73;46603.44;5092718;28;20028;-70
2024/03/26 10:39:50;;;;;;;7.70;3.95;;;;;;;-146.27;51.38;46625.34;5091307;28;19915;-71
2024/03/26 10:42:17;;;;;;;7.60;3.00;;;;;;;-146.27;50.78;46615.41;5095695;28;20102;-73
2024/03/26 10:44:43;;;;;;;5.90;3.30;;;;;;;-146.27;51.76;46583.53;5087425;28;20019;-72
2024/03/26 10:47:09;;;;;;;5.78;3.28;;;;;;;-146.27;51.75;46583.53;5089606;28;20183;-71
2024/03/26 10:49:36;;;;;;;6.30;3.28;;;;;;;-146.27;51.92;46589.50;5071161;28;20024;-72
2024/03/26 10:52:02;;;;;;;4.85;2.80;;;;;;;-146.27;51.88;46595.47;5091440;28;20153;-69
2024/03/26 10:54:29;;;;;;;16.63;3.42;;;;;;;-146.27;52.60;46619.38;5092031;28;20028;-69
2024/03/26 10:56:55;;;;;;;7.80;3.67;;;;;;;-146.27;52.89;46607.44;5091652;28;20357;-69
2024/03/26 10:59:21;;;;;;;8.00;3.75;;;;;;;-146.27;52.82;46613.41;5092530;28;20039;-69
2024/03/26 11:01:48;;;;;;;5.38;3.20;;;;;;;-146.27;52.53;46613.41;5099162;28;20035;-69
2024/03/26 11:04:15;;;;;;;5.85;3.05;;;;;;;-146.27;52.42;46615.41;5086889;28;20024;-69
2024/03/26 11:06:40;;;;;;;5.97;3.75;;;;;;;-146.27;52.48;46595.47;5092498;28;20451;-72
2024/03/26 11:09:08;;;;;;;7.45;3.53;;;;;;;-146.27;52.34;46619.38;5076821;28;20077;-72
2024/03/26 11:11:35;;;;;;;12.38;3.80;;;;;;;-146.27;52.66;46615.41;5089101;28;20096;-72